createdAt,value
2019-01-08T00:08:41.900Z,-4.7
2019-01-08T00:13:38.507Z,-4.5
2019-01-08T00:18:35.344Z,-4.5
2019-01-08T00:23:31.909Z,-5.4
2019-01-08T00:28:28.487Z,-5.3
2019-01-08T00:33:24.725Z,-4.5
2019-01-08T00:38:21.483Z,-5.1
2019-01-08T00:43:18.318Z,-4.4
2019-01-08T00:48:14.932Z,-4.5
2019-01-08T00:53:11.636Z,-4.5
2019-01-08T00:58:08.293Z,-4.4
2019-01-08T01:03:04.635Z,-4.6
2019-01-08T01:08:01.250Z,-4.7
2019-01-08T01:12:58.094Z,-6.1
2019-01-08T01:17:54.737Z,-4.4
2019-01-08T01:22:51.417Z,-4.4
2019-01-08T01:27:48.016Z,-4.7
2019-01-08T01:32:44.579Z,-4.4
2019-01-08T01:37:41.260Z,-4.5
2019-01-08T01:42:37.782Z,-4.4
2019-01-08T01:47:34.401Z,-4.5
2019-01-08T01:52:31.017Z,-4.4
2019-01-08T01:57:27.651Z,-4.3
2019-01-08T02:02:24.357Z,-4.6
2019-01-08T02:07:21.103Z,-4.4
2019-01-08T02:12:17.432Z,-5.2
2019-01-08T02:17:14.111Z,-4.7
2019-01-08T02:22:10.647Z,-5.2
2019-01-08T02:27:06.837Z,-5.2
2019-01-08T02:32:03.447Z,-5.2
2019-01-08T02:36:59.991Z,-5.2
2019-01-08T02:41:56.655Z,-6.4
2019-01-08T02:46:53.101Z,-5.2
2019-01-08T02:51:49.429Z,-5.1
2019-01-08T02:56:46.050Z,-5.2
2019-01-08T03:01:42.320Z,-5.3
2019-01-08T03:06:39.100Z,-5.2
2019-01-08T03:11:35.408Z,-5.1
2019-01-08T03:16:32.015Z,-5.1
2019-01-08T03:21:28.713Z,-5.2
2019-01-08T03:26:25.249Z,-5.1
2019-01-08T03:31:21.883Z,-5.1
2019-01-08T03:36:18.657Z,-5
2019-01-08T03:41:15.075Z,-5
2019-01-08T03:46:11.833Z,-5.4
2019-01-08T03:51:08.534Z,-5.7
2019-01-08T03:56:05.156Z,-4.3
2019-01-08T04:01:01.738Z,-4.5
2019-01-08T04:05:58.277Z,-4.3
2019-01-08T04:10:54.996Z,-4.9
2019-01-08T04:15:51.365Z,-4.9
2019-01-08T04:20:47.884Z,-4.9
2019-01-08T04:25:44.558Z,-4.9
2019-01-08T04:30:41.024Z,-5.2
2019-01-08T04:35:37.733Z,-4.2
2019-01-08T04:40:34.224Z,-5.1
2019-01-08T04:45:30.893Z,-4.1
2019-01-08T04:50:27.414Z,-5
2019-01-08T04:55:24.026Z,-4.8
2019-01-08T05:00:20.521Z,-4.8
2019-01-08T05:05:17.289Z,-4.9
2019-01-08T05:10:13.724Z,-4.8
2019-01-08T05:15:10.480Z,-4.9
2019-01-08T05:20:06.608Z,-4.9
2019-01-08T05:25:03.771Z,-3.9
2019-01-08T05:30:07.678Z,-4.9
2019-01-08T05:34:56.924Z,-4.9
2019-01-08T05:39:53.516Z,-4.3
2019-01-08T05:44:50.013Z,-5
2019-01-08T05:49:46.825Z,-5
2019-01-08T05:54:43.552Z,-5
2019-01-08T05:59:40.091Z,-4.8
2019-01-08T06:04:36.729Z,-4.7
2019-01-08T06:09:33.251Z,-5
2019-01-08T06:14:30.048Z,-4.9
2019-01-08T06:19:27.110Z,-5.6
2019-01-08T06:24:23.322Z,-5.1
2019-01-08T06:29:19.972Z,-5.1
2019-01-08T06:34:16.688Z,-4.1
2019-01-08T06:39:13.896Z,-4.1
2019-01-08T06:44:10.557Z,-4
2019-01-08T06:49:07.232Z,-4.9
2019-01-08T06:54:04.010Z,-4.9
2019-01-08T06:59:00.451Z,-5
2019-01-08T07:03:57.085Z,-4.4
2019-01-08T07:08:53.656Z,-5.1
2019-01-08T07:13:51.325Z,-5
2019-01-08T07:18:46.506Z,-4.9
2019-01-08T07:23:43.025Z,-5
2019-01-08T07:28:39.677Z,-4.9
2019-01-08T07:33:36.444Z,-4.9
2019-01-08T07:38:33.059Z,-3.9
2019-01-08T07:43:29.510Z,-4
2019-01-08T07:48:26.311Z,-3.9
2019-01-08T07:53:22.953Z,-4.5
2019-01-08T07:58:19.737Z,-3.7
2019-01-08T08:03:16.313Z,-4.7
2019-01-08T08:08:12.177Z,-3.8
2019-01-08T08:13:08.575Z,-3.8
2019-01-08T08:18:05.226Z,-3.6
2019-01-08T08:23:01.774Z,-3.6
2019-01-08T08:27:58.279Z,-4.5
2019-01-08T08:32:54.928Z,-3.5
2019-01-08T08:37:51.507Z,-4.4
2019-01-08T08:42:48.165Z,-3.5
2019-01-08T08:47:44.760Z,-3.4
2019-01-08T08:52:41.627Z,-4.3
2019-01-08T08:57:38.420Z,-4.4
2019-01-08T09:02:35.118Z,-3.4
2019-01-08T09:07:31.288Z,-3.5
2019-01-08T09:12:27.984Z,-3.4
2019-01-08T09:17:25.252Z,-3.3
2019-01-08T09:22:21.869Z,-3.5
2019-01-08T09:27:17.867Z,-4.1
2019-01-08T09:32:14.283Z,-4.1
2019-01-08T09:37:10.548Z,-4
2019-01-08T09:42:07.533Z,-4
2019-01-08T09:47:04.210Z,-6.8
2019-01-08T09:52:00.794Z,-4
2019-01-08T09:56:57.127Z,-4
2019-01-08T10:01:53.878Z,-3
2019-01-08T10:06:50.946Z,-3
2019-01-08T10:11:47.416Z,-2.9
2019-01-08T10:16:43.974Z,-3.7
2019-01-08T10:21:40.482Z,-2.6
2019-01-08T10:26:37.133Z,-2.3
2019-01-08T10:31:33.984Z,-2.1
2019-01-08T10:36:30.650Z,-1.9
2019-01-08T10:41:27.456Z,-1.7
2019-01-08T10:46:23.887Z,-1.6
2019-01-08T10:51:20.464Z,-1.6
2019-01-08T10:56:16.924Z,-1.4
2019-01-08T11:01:13.514Z,-1.4
2019-01-08T11:06:10.467Z,-1.4
2019-01-08T11:11:07.802Z,-1.3
2019-01-08T11:16:03.690Z,-1.3
2019-01-08T11:21:00.401Z,-1.3
2019-01-08T11:25:57.097Z,-1.3
2019-01-08T11:30:53.839Z,-1.2
2019-01-08T11:35:50.570Z,-1
2019-01-08T11:40:46.877Z,-0.9
2019-01-08T11:45:43.212Z,-0.8
2019-01-08T11:50:39.973Z,-0.5
2019-01-08T11:55:36.783Z,-0.4
2019-01-08T12:00:33.467Z,-0.2
2019-01-08T12:05:30.001Z,0
2019-01-08T12:10:26.758Z,0.1
2019-01-08T12:15:23.734Z,0.2
2019-01-08T12:20:20.655Z,0.3
2019-01-08T12:25:17.467Z,0.5
2019-01-08T12:30:14.443Z,0.7
2019-01-08T12:35:11.298Z,0.7
2019-01-08T12:40:08.194Z,0.9
2019-01-08T12:45:04.618Z,0.9
2019-01-08T12:50:01.331Z,1
2019-01-08T12:54:58.094Z,1
2019-01-08T12:59:54.863Z,1
2019-01-08T13:04:51.100Z,1
2019-01-08T13:09:48.565Z,1
2019-01-08T13:14:45.842Z,-1.4
2019-01-08T13:19:42.411Z,0.9
2019-01-08T13:29:50.535Z,1
2019-01-08T13:34:47.209Z,0.9
2019-01-08T13:39:42.019Z,0.8
2019-01-08T13:44:38.842Z,0.7
2019-01-08T13:49:35.329Z,0.7
2019-01-08T13:54:30.921Z,0.7
2019-01-08T13:59:27.792Z,0.6
2019-01-08T14:04:24.276Z,0.2
2019-01-08T14:09:21.297Z,-3.3
2019-01-08T14:14:17.414Z,0.5
2019-01-08T14:19:14.198Z,0.5
2019-01-08T14:24:10.993Z,0.4
2019-01-08T14:29:07.849Z,0.3
2019-01-08T14:34:04.537Z,0.2
2019-01-08T14:39:01.360Z,0.2
2019-01-08T14:43:57.815Z,0.2
2019-01-08T14:48:53.827Z,0.1
2019-01-08T14:53:50.417Z,0
2019-01-08T14:58:47.144Z,-0.1
2019-01-08T15:03:43.798Z,-0.2
2019-01-08T15:08:40.736Z,-0.1
2019-01-08T15:13:37.734Z,-9
2019-01-08T15:18:34.699Z,-0.2
2019-01-08T15:23:31.650Z,-0.2
2019-01-08T15:28:28.376Z,-0.3
2019-01-08T15:33:24.538Z,-0.4
2019-01-08T15:38:20.991Z,-0.4
2019-01-08T15:43:17.625Z,-0.5
2019-01-08T15:48:14.138Z,-0.5
2019-01-08T15:53:09.492Z,-0.5
2019-01-08T15:58:05.852Z,-0.5
2019-01-08T16:03:07.040Z,-0.6
2019-01-08T16:07:59.215Z,-0.5
2019-01-08T16:12:55.359Z,-0.4
2019-01-08T16:17:51.571Z,-0.6
2019-01-08T16:22:47.719Z,-0.6
2019-01-08T16:27:44.741Z,-0.7
2019-01-08T16:32:41.241Z,-0.8
2019-01-08T16:37:37.477Z,-3.3
2019-01-08T16:42:33.895Z,-0.8
2019-01-08T16:47:30.574Z,-0.7
2019-01-08T16:52:27.282Z,-0.7
2019-01-08T16:57:23.966Z,-0.7
2019-01-08T17:02:20.443Z,-0.7
2019-01-08T17:07:17.341Z,-0.9
2019-01-08T17:12:13.829Z,-0.8
2019-01-08T17:17:10.491Z,-0.7
2019-01-08T17:22:06.947Z,-0.8
2019-01-08T17:27:03.677Z,-0.8
2019-01-08T17:32:00.221Z,-0.8
2019-01-08T17:36:57.069Z,-0.7
2019-01-08T17:41:53.822Z,-0.7
2019-01-08T17:46:50.379Z,-0.8
2019-01-08T17:51:47.049Z,-0.9
2019-01-08T17:56:43.729Z,-1
2019-01-08T18:01:40.885Z,-1.1
2019-01-08T18:06:37.459Z,-1.1
2019-01-08T18:11:34.659Z,-1.2
2019-01-08T18:16:31.487Z,-1.1
2019-01-08T18:21:27.574Z,-1.1
2019-01-08T18:26:23.918Z,-1.1
2019-01-08T18:31:20.761Z,-0.9
2019-01-08T18:36:16.733Z,-1
2019-01-08T18:41:12.965Z,-1.1
2019-01-08T18:46:09.630Z,-1.1
2019-01-08T18:51:06.253Z,-1.1
2019-01-08T18:56:02.825Z,-1.1
2019-01-08T19:00:59.346Z,-1.2
2019-01-08T19:05:56.213Z,-1.2
2019-01-08T19:10:52.567Z,-1
2019-01-08T19:15:49.358Z,-1.4
2019-01-08T19:20:45.555Z,-1.1
2019-01-08T19:25:42.251Z,-1
2019-01-08T19:30:38.834Z,-1.1
2019-01-08T19:35:35.272Z,-1.1
2019-01-08T19:40:32.592Z,-1.1
2019-01-08T19:45:29.028Z,-1.1
2019-01-08T19:50:25.348Z,-1
2019-01-08T19:55:22.026Z,-1.1
2019-01-08T20:00:18.761Z,-1.1
2019-01-08T20:05:15.605Z,-1.2
2019-01-08T20:10:11.746Z,-1.1
2019-01-08T20:15:08.432Z,-1.1
2019-01-08T20:20:04.879Z,-1.1
2019-01-08T20:25:01.512Z,-1.1
2019-01-08T20:29:58.189Z,-1
2019-01-08T20:34:54.824Z,-1
2019-01-08T20:39:51.523Z,-0.9
2019-01-08T20:44:48.182Z,-0.9
2019-01-08T20:49:45.308Z,-1.1
2019-01-08T20:54:42.038Z,-1.1
2019-01-08T20:59:38.509Z,-1
2019-01-08T21:04:35.839Z,-0.9
2019-01-08T21:14:28.379Z,-1
2019-01-08T21:19:24.639Z,-0.9
2019-01-08T21:24:28.369Z,-0.9
2019-01-08T21:29:17.951Z,-1
2019-01-08T21:34:15.393Z,-1.4
2019-01-08T21:39:11.629Z,-1
2019-01-08T21:44:08.385Z,-1.1
2019-01-08T21:49:05.135Z,-1.1
2019-01-08T21:54:01.928Z,-1
2019-01-08T21:58:58.422Z,-1
2019-01-08T22:03:54.489Z,-1.1
2019-01-08T22:08:51.099Z,-2
2019-01-08T22:13:47.923Z,-1.1
2019-01-08T22:18:44.547Z,-1.1
2019-01-08T22:23:41.100Z,-1.2
2019-01-08T22:28:37.788Z,-1.1
2019-01-08T22:33:34.722Z,-1.1
2019-01-08T22:38:31.238Z,-1.1
2019-01-08T22:43:28.235Z,-1.1
2019-01-08T22:48:24.977Z,-1.1
2019-01-08T22:53:21.704Z,-1.2
2019-01-08T22:58:17.962Z,-1.1
2019-01-08T23:03:14.671Z,-1.1
2019-01-08T23:08:11.342Z,-1.1
2019-01-08T23:13:08.004Z,-1.2
2019-01-08T23:18:04.591Z,-1.1
2019-01-08T23:23:01.190Z,-1.1
2019-01-08T23:27:57.614Z,-1.1
2019-01-08T23:32:54.321Z,-1.1
2019-01-08T23:37:50.482Z,-1.2
2019-01-08T23:42:47.264Z,-1.2
2019-01-08T23:47:44.018Z,-1.2
2019-01-08T23:52:40.606Z,-1.1
2019-01-08T23:57:37.493Z,-1.1
